createdAt,value
2022-11-30T00:04:21.324Z,83.80
2022-11-30T00:12:29.410Z,85.00
2022-11-30T00:20:34.960Z,83.90
2022-11-30T00:28:44.373Z,83.80
2022-11-30T00:36:49.705Z,83.80
2022-11-30T00:44:57.888Z,84.30
2022-11-30T00:53:03.380Z,84.80
2022-11-30T01:01:12.126Z,84.90
2022-11-30T01:09:26.988Z,85.00
2022-11-30T01:17:34.891Z,85.00
2022-11-30T01:25:40.201Z,84.80
2022-11-30T01:33:51.997Z,84.20
2022-11-30T01:41:57.863Z,84.90
2022-11-30T01:50:12.622Z,85.10
2022-11-30T01:58:21.863Z,85.10
2022-11-30T02:06:29.827Z,84.80
2022-11-30T02:14:40.396Z,85.10
2022-11-30T02:23:01.834Z,84.80
2022-11-30T02:31:14.659Z,84.50
2022-11-30T02:39:23.000Z,84.40
2022-11-30T02:47:37.981Z,84.10
2022-11-30T02:55:43.276Z,84.20
2022-11-30T03:03:51.468Z,84.00
2022-11-30T03:11:57.020Z,84.60
2022-11-30T03:20:05.449Z,84.40
2022-11-30T03:28:10.726Z,84.20
2022-11-30T03:36:18.684Z,84.30
2022-11-30T03:44:24.063Z,84.10
2022-11-30T03:52:32.072Z,84.00
2022-11-30T04:00:37.830Z,84.20
2022-11-30T04:08:46.390Z,84.30
2022-11-30T04:16:52.457Z,85.00
2022-11-30T04:25:00.482Z,85.10
2022-11-30T04:33:06.246Z,85.00
2022-11-30T04:41:16.643Z,85.10
2022-11-30T04:49:22.411Z,84.70
2022-11-30T04:57:30.689Z,84.50
2022-11-30T05:05:36.020Z,84.40
2022-11-30T05:13:43.913Z,84.20
2022-11-30T05:21:49.262Z,83.80
2022-11-30T05:29:57.088Z,83.30
2022-11-30T05:38:02.466Z,83.20
2022-11-30T05:46:11.919Z,83.50
2022-11-30T05:54:19.083Z,83.20
2022-11-30T06:02:28.502Z,83.20
2022-11-30T06:10:34.061Z,82.90
2022-11-30T06:18:42.458Z,83.40
2022-11-30T06:26:47.734Z,83.30
2022-11-30T06:34:55.647Z,83.70
2022-11-30T06:43:01.001Z,83.40
2022-11-30T06:51:12.366Z,82.90
2022-11-30T06:59:17.748Z,82.60
2022-11-30T07:07:25.667Z,81.80
2022-11-30T07:15:31.064Z,81.40
2022-11-30T07:23:56.185Z,80.90
2022-11-30T07:32:02.192Z,81.20
2022-11-30T07:40:11.835Z,78.60
2022-11-30T07:48:17.182Z,78.30
2022-11-30T07:56:25.779Z,75.60
2022-11-30T08:04:31.074Z,74.00
2022-11-30T08:12:39.031Z,68.60
2022-11-30T08:20:49.646Z,60.60
2022-11-30T08:28:59.073Z,56.70
2022-11-30T08:37:05.068Z,52.90
2022-11-30T08:45:16.594Z,52.80
2022-11-30T08:53:22.899Z,51.70
2022-11-30T09:01:32.943Z,53.50
2022-11-30T09:09:38.948Z,57.30
2022-11-30T09:17:46.862Z,52.90
2022-11-30T09:25:58.503Z,51.10
2022-11-30T09:34:07.060Z,53.20
2022-11-30T09:42:31.030Z,56.60
2022-11-30T09:50:45.633Z,59.20
2022-11-30T09:58:56.165Z,60.90
2022-11-30T10:07:31.182Z,63.00
2022-11-30T10:15:51.821Z,64.50
2022-11-30T10:24:15.654Z,65.50
2022-11-30T10:32:22.490Z,66.00
2022-11-30T10:40:38.539Z,66.00
2022-11-30T10:48:49.381Z,67.20
2022-11-30T10:56:57.413Z,69.90
2022-11-30T11:05:13.464Z,72.80
2022-11-30T11:13:24.406Z,71.90
2022-11-30T11:21:30.057Z,74.30
2022-11-30T11:29:40.198Z,73.50
2022-11-30T11:37:54.677Z,74.00
2022-11-30T11:46:12.746Z,74.00
2022-11-30T11:54:25.636Z,74.20
2022-11-30T12:02:41.774Z,75.20
2022-11-30T12:10:53.692Z,75.30
2022-11-30T12:19:08.102Z,74.40
2022-11-30T12:27:24.581Z,74.90
2022-11-30T12:35:42.638Z,75.70
2022-11-30T12:43:55.442Z,74.30
2022-11-30T12:52:11.310Z,74.30
2022-11-30T13:00:22.884Z,74.50
2022-11-30T13:08:37.943Z,73.60
2022-11-30T13:16:44.086Z,73.10
2022-11-30T13:24:59.358Z,72.00
2022-11-30T13:33:35.691Z,72.40
2022-11-30T13:41:45.185Z,75.50
2022-11-30T13:49:59.231Z,75.60
2022-11-30T13:58:18.621Z,75.90
2022-11-30T14:06:50.022Z,76.70
2022-11-30T14:14:58.176Z,76.90
2022-11-30T14:23:07.925Z,76.90
2022-11-30T14:31:23.623Z,76.60
2022-11-30T14:39:34.324Z,76.70
2022-11-30T14:47:46.646Z,76.00
2022-11-30T14:55:54.632Z,75.40
2022-11-30T15:04:08.916Z,76.60
2022-11-30T15:12:21.299Z,76.50
2022-11-30T15:20:32.652Z,76.80
2022-11-30T15:28:42.595Z,76.20
2022-11-30T15:36:50.989Z,76.30
2022-11-30T15:44:56.571Z,76.40
2022-11-30T15:53:06.396Z,76.40
2022-11-30T16:01:16.785Z,79.60
2022-11-30T16:09:32.489Z,79.00
2022-11-30T16:17:38.606Z,79.20
2022-11-30T16:25:50.710Z,79.20
2022-11-30T16:33:56.016Z,78.40
2022-11-30T16:42:04.754Z,78.20
2022-11-30T16:50:12.122Z,78.20
2022-11-30T16:58:20.124Z,79.20
2022-11-30T17:06:26.985Z,79.90
2022-11-30T17:14:34.909Z,80.00
2022-11-30T17:22:40.493Z,80.60
2022-11-30T17:30:49.633Z,81.30
2022-11-30T17:39:02.257Z,82.20
2022-11-30T17:47:10.448Z,81.80
2022-11-30T17:55:15.832Z,81.00
2022-11-30T18:03:24.130Z,83.80
2022-11-30T18:11:30.358Z,84.50
2022-11-30T18:19:38.349Z,85.40
2022-11-30T18:27:44.605Z,85.60
2022-11-30T18:35:52.566Z,85.20
2022-11-30T18:43:57.865Z,84.20
2022-11-30T18:52:06.024Z,84.10
2022-11-30T19:00:12.929Z,84.30
2022-11-30T19:08:36.014Z,85.10
2022-11-30T19:16:42.658Z,84.40
2022-11-30T19:24:54.037Z,84.20
2022-11-30T19:32:59.376Z,84.80
2022-11-30T19:41:11.493Z,84.10
2022-11-30T19:49:16.756Z,84.20
2022-11-30T19:57:24.643Z,84.80
2022-11-30T20:05:34.098Z,86.00
2022-11-30T20:13:42.153Z,87.20
2022-11-30T20:21:48.435Z,89.20
2022-11-30T20:29:57.142Z,90.00
2022-11-30T20:38:02.467Z,88.70
2022-11-30T20:46:18.416Z,89.40
2022-11-30T20:54:23.890Z,88.40
2022-11-30T21:02:32.132Z,87.00
2022-11-30T21:10:41.262Z,88.30
2022-11-30T21:18:50.475Z,87.20
2022-11-30T21:26:56.384Z,87.50
2022-11-30T21:35:07.001Z,87.80
2022-11-30T21:43:12.725Z,88.50
2022-11-30T21:51:22.905Z,88.60
2022-11-30T21:59:35.128Z,87.60
2022-11-30T22:07:43.744Z,87.90
2022-11-30T22:15:49.532Z,86.60
2022-11-30T22:23:59.850Z,87.20
2022-11-30T22:32:05.309Z,86.40
2022-11-30T22:40:15.207Z,86.40
2022-11-30T22:48:20.601Z,85.00
2022-11-30T22:56:30.212Z,83.70
2022-11-30T23:04:35.997Z,84.40
2022-11-30T23:12:58.929Z,85.50
2022-11-30T23:21:07.625Z,84.80
2022-11-30T23:29:17.753Z,83.60
2022-11-30T23:37:23.167Z,83.20
2022-11-30T23:45:31.290Z,83.40
2022-11-30T23:53:37.277Z,82.90
